sensor_id;sensor_type;location;lat;lon;timestamp;P1;durP1;ratioP1;P2;durP2;ratioP2
77217;SDS011;66214;51.302;17.068;2023-02-15T00:00:13;30.20;;;12.30;;
77217;SDS011;66214;51.302;17.068;2023-02-15T00:03:22;27.70;;;9.90;;
77217;SDS011;66214;51.302;17.068;2023-02-15T00:05:49;29.70;;;11.60;;
77217;SDS011;66214;51.302;17.068;2023-02-15T00:08:17;43.30;;;14.60;;
77217;SDS011;66214;51.302;17.068;2023-02-15T00:10:45;32.30;;;13.30;;
77217;SDS011;66214;51.302;17.068;2023-02-15T00:13:13;21.80;;;8.90;;
77217;SDS011;66214;51.302;17.068;2023-02-15T00:15:40;34.50;;;12.80;;
77217;SDS011;66214;51.302;17.068;2023-02-15T00:18:08;61.60;;;19.70;;
77217;SDS011;66214;51.302;17.068;2023-02-15T00:20:37;80.10;;;28.90;;
77217;SDS011;66214;51.302;17.068;2023-02-15T00:23:05;77.90;;;26.40;;
77217;SDS011;66214;51.302;17.068;2023-02-15T00:25:33;93.30;;;31.40;;
77217;SDS011;66214;51.302;17.068;2023-02-15T00:28:01;74.50;;;29.20;;
77217;SDS011;66214;51.302;17.068;2023-02-15T00:30:29;67.30;;;25.50;;
77217;SDS011;66214;51.302;17.068;2023-02-15T00:36:31;35.70;;;14.70;;
77217;SDS011;66214;51.302;17.068;2023-02-15T00:39:00;33.10;;;13.20;;
77217;SDS011;66214;51.302;17.068;2023-02-15T00:41:27;31.70;;;11.10;;
77217;SDS011;66214;51.302;17.068;2023-02-15T00:43:55;37.30;;;14.70;;
77217;SDS011;66214;51.302;17.068;2023-02-15T00:46:23;29.90;;;12.30;;
77217;SDS011;66214;51.302;17.068;2023-02-15T00:48:51;31.90;;;12.00;;
77217;SDS011;66214;51.302;17.068;2023-02-15T00:51:19;27.50;;;10.50;;
77217;SDS011;66214;51.302;17.068;2023-02-15T00:53:48;33.10;;;12.30;;
77217;SDS011;66214;51.302;17.068;2023-02-15T00:56:16;26.40;;;11.80;;
77217;SDS011;66214;51.302;17.068;2023-02-15T00:58:44;30.00;;;12.80;;
77217;SDS011;66214;51.302;17.068;2023-02-15T01:01:14;30.30;;;12.00;;
77217;SDS011;66214;51.302;17.068;2023-02-15T01:03:44;26.60;;;10.50;;
77217;SDS011;66214;51.302;17.068;2023-02-15T01:06:15;39.80;;;15.40;;
77217;SDS011;66214;51.302;17.068;2023-02-15T01:08:45;56.90;;;21.10;;
77217;SDS011;66214;51.302;17.068;2023-02-15T01:11:15;65.60;;;22.00;;
77217;SDS011;66214;51.302;17.068;2023-02-15T01:13:56;88.90;;;27.40;;
77217;SDS011;66214;51.302;17.068;2023-02-15T01:16:27;79.40;;;26.10;;
77217;SDS011;66214;51.302;17.068;2023-02-15T01:18:56;69.50;;;26.00;;
77217;SDS011;66214;51.302;17.068;2023-02-15T01:21:25;72.00;;;24.80;;
77217;SDS011;66214;51.302;17.068;2023-02-15T01:23:53;37.90;;;15.60;;
77217;SDS011;66214;51.302;17.068;2023-02-15T01:26:21;33.40;;;13.10;;
77217;SDS011;66214;51.302;17.068;2023-02-15T01:28:49;33.50;;;13.30;;
77217;SDS011;66214;51.302;17.068;2023-02-15T01:31:19;33.40;;;14.00;;
77217;SDS011;66214;51.302;17.068;2023-02-15T01:33:48;33.00;;;12.50;;
77217;SDS011;66214;51.302;17.068;2023-02-15T01:36:16;32.80;;;13.10;;
77217;SDS011;66214;51.302;17.068;2023-02-15T01:38:45;22.90;;;9.10;;
77217;SDS011;66214;51.302;17.068;2023-02-15T01:41:13;30.30;;;11.50;;
77217;SDS011;66214;51.302;17.068;2023-02-15T01:43:59;30.60;;;10.90;;
77217;SDS011;66214;51.302;17.068;2023-02-15T01:46:36;32.90;;;13.30;;
77217;SDS011;66214;51.302;17.068;2023-02-15T01:49:19;20.40;;;8.60;;
77217;SDS011;66214;51.302;17.068;2023-02-15T01:51:50;34.90;;;11.50;;
77217;SDS011;66214;51.302;17.068;2023-02-15T01:54:31;34.60;;;13.10;;
77217;SDS011;66214;51.302;17.068;2023-02-15T01:57:07;62.10;;;21.20;;
77217;SDS011;66214;51.302;17.068;2023-02-15T01:59:39;81.30;;;25.40;;
77217;SDS011;66214;51.302;17.068;2023-02-15T02:02:11;96.30;;;28.50;;
77217;SDS011;66214;51.302;17.068;2023-02-15T02:04:47;80.20;;;26.50;;
77217;SDS011;66214;51.302;17.068;2023-02-15T02:07:19;80.30;;;25.10;;
77217;SDS011;66214;51.302;17.068;2023-02-15T02:09:49;65.90;;;24.00;;
77217;SDS011;66214;51.302;17.068;2023-02-15T02:12:17;41.30;;;15.50;;
77217;SDS011;66214;51.302;17.068;2023-02-15T02:14:47;33.60;;;12.40;;
77217;SDS011;66214;51.302;17.068;2023-02-15T02:17:16;26.70;;;10.90;;
77217;SDS011;66214;51.302;17.068;2023-02-15T02:20:17;28.50;;;12.20;;
77217;SDS011;66214;51.302;17.068;2023-02-15T02:28:50;35.90;;;12.90;;
77217;SDS011;66214;51.302;17.068;2023-02-15T02:34:49;30.20;;;11.00;;
77217;SDS011;66214;51.302;17.068;2023-02-15T02:40:54;32.90;;;11.10;;
77217;SDS011;66214;51.302;17.068;2023-02-15T02:43:52;31.00;;;11.90;;
77217;SDS011;66214;51.302;17.068;2023-02-15T02:46:59;45.20;;;15.40;;
77217;SDS011;66214;51.302;17.068;2023-02-15T02:49:36;76.30;;;22.80;;
77217;SDS011;66214;51.302;17.068;2023-02-15T02:52:38;97.60;;;29.40;;
77217;SDS011;66214;51.302;17.068;2023-02-15T02:57:57;104.40;;;33.80;;
77217;SDS011;66214;51.302;17.068;2023-02-15T03:00:29;119.70;;;32.40;;
77217;SDS011;66214;51.302;17.068;2023-02-15T03:03:16;90.80;;;31.10;;
77217;SDS011;66214;51.302;17.068;2023-02-15T03:05:55;64.00;;;26.30;;
77217;SDS011;66214;51.302;17.068;2023-02-15T03:08:32;46.10;;;18.80;;
77217;SDS011;66214;51.302;17.068;2023-02-15T03:11:04;38.20;;;14.50;;
77217;SDS011;66214;51.302;17.068;2023-02-15T03:13:33;34.00;;;14.70;;
77217;SDS011;66214;51.302;17.068;2023-02-15T03:16:05;34.30;;;14.00;;
77217;SDS011;66214;51.302;17.068;2023-02-15T03:19:06;34.10;;;13.20;;
77217;SDS011;66214;51.302;17.068;2023-02-15T03:22:10;38.10;;;14.00;;
77217;SDS011;66214;51.302;17.068;2023-02-15T03:25:04;26.60;;;11.90;;
77217;SDS011;66214;51.302;17.068;2023-02-15T03:27:50;31.80;;;12.30;;
77217;SDS011;66214;51.302;17.068;2023-02-15T03:30:25;30.70;;;11.80;;
77217;SDS011;66214;51.302;17.068;2023-02-15T03:32:58;31.00;;;11.00;;
77217;SDS011;66214;51.302;17.068;2023-02-15T03:35:36;38.30;;;13.20;;
77217;SDS011;66214;51.302;17.068;2023-02-15T03:38:17;61.40;;;21.00;;
77217;SDS011;66214;51.302;17.068;2023-02-15T03:40:50;69.50;;;24.30;;
77217;SDS011;66214;51.302;17.068;2023-02-15T03:43:51;73.80;;;24.00;;
77217;SDS011;66214;51.302;17.068;2023-02-15T03:49:24;61.90;;;23.70;;
77217;SDS011;66214;51.302;17.068;2023-02-15T03:51:58;56.60;;;20.20;;
77217;SDS011;66214;51.302;17.068;2023-02-15T03:54:32;35.30;;;14.30;;
77217;SDS011;66214;51.302;17.068;2023-02-15T03:57:23;27.90;;;11.80;;
77217;SDS011;66214;51.302;17.068;2023-02-15T04:00:24;30.90;;;12.30;;
77217;SDS011;66214;51.302;17.068;2023-02-15T04:05:43;29.20;;;11.20;;
77217;SDS011;66214;51.302;17.068;2023-02-15T04:08:12;28.20;;;11.60;;
77217;SDS011;66214;51.302;17.068;2023-02-15T04:10:40;23.70;;;10.30;;
77217;SDS011;66214;51.302;17.068;2023-02-15T04:13:22;23.20;;;9.90;;
77217;SDS011;66214;51.302;17.068;2023-02-15T04:15:53;26.00;;;11.80;;
77217;SDS011;66214;51.302;17.068;2023-02-15T04:18:32;26.20;;;10.50;;
77217;SDS011;66214;51.302;17.068;2023-02-15T04:21:25;27.80;;;10.80;;
77217;SDS011;66214;51.302;17.068;2023-02-15T04:24:15;23.50;;;9.00;;
77217;SDS011;66214;51.302;17.068;2023-02-15T04:27:02;38.60;;;12.00;;
77217;SDS011;66214;51.302;17.068;2023-02-15T04:29:32;78.80;;;22.10;;
77217;SDS011;66214;51.302;17.068;2023-02-15T04:32:01;67.40;;;20.50;;
77217;SDS011;66214;51.302;17.068;2023-02-15T04:34:29;71.30;;;23.60;;
77217;SDS011;66214;51.302;17.068;2023-02-15T04:36:57;80.40;;;26.70;;
77217;SDS011;66214;51.302;17.068;2023-02-15T04:39:25;71.30;;;20.60;;
77217;SDS011;66214;51.302;17.068;2023-02-15T04:41:53;69.50;;;22.60;;
77217;SDS011;66214;51.302;17.068;2023-02-15T04:44:21;71.70;;;21.60;;
77217;SDS011;66214;51.302;17.068;2023-02-15T04:46:49;65.40;;;19.20;;
77217;SDS011;66214;51.302;17.068;2023-02-15T04:49:16;66.80;;;23.90;;
77217;SDS011;66214;51.302;17.068;2023-02-15T04:51:44;40.50;;;16.20;;
77217;SDS011;66214;51.302;17.068;2023-02-15T04:54:12;37.60;;;15.60;;
77217;SDS011;66214;51.302;17.068;2023-02-15T04:56:40;31.40;;;11.50;;
77217;SDS011;66214;51.302;17.068;2023-02-15T04:59:11;27.50;;;12.00;;
77217;SDS011;66214;51.302;17.068;2023-02-15T05:01:40;19.50;;;7.70;;
77217;SDS011;66214;51.302;17.068;2023-02-15T05:04:09;24.80;;;10.20;;
77217;SDS011;66214;51.302;17.068;2023-02-15T05:06:37;21.80;;;8.10;;
77217;SDS011;66214;51.302;17.068;2023-02-15T05:09:05;22.00;;;8.90;;
77217;SDS011;66214;51.302;17.068;2023-02-15T05:11:33;21.10;;;8.90;;
77217;SDS011;66214;51.302;17.068;2023-02-15T05:14:01;26.10;;;9.60;;
77217;SDS011;66214;51.302;17.068;2023-02-15T05:16:28;26.70;;;9.50;;
77217;SDS011;66214;51.302;17.068;2023-02-15T05:18:56;45.30;;;16.40;;
77217;SDS011;66214;51.302;17.068;2023-02-15T05:24:31;62.60;;;19.70;;
77217;SDS011;66214;51.302;17.068;2023-02-15T05:27:18;47.70;;;16.50;;
77217;SDS011;66214;51.302;17.068;2023-02-15T05:30:05;47.70;;;18.00;;
77217;SDS011;66214;51.302;17.068;2023-02-15T05:32:39;45.70;;;18.70;;
77217;SDS011;66214;51.302;17.068;2023-02-15T05:35:11;31.70;;;13.50;;
77217;SDS011;66214;51.302;17.068;2023-02-15T05:37:41;31.20;;;13.10;;
77217;SDS011;66214;51.302;17.068;2023-02-15T05:40:09;30.40;;;13.80;;
77217;SDS011;66214;51.302;17.068;2023-02-15T05:42:38;34.80;;;14.10;;
77217;SDS011;66214;51.302;17.068;2023-02-15T05:45:06;25.20;;;11.00;;
77217;SDS011;66214;51.302;17.068;2023-02-15T05:47:34;30.60;;;12.40;;
77217;SDS011;66214;51.302;17.068;2023-02-15T05:50:05;29.70;;;12.10;;
77217;SDS011;66214;51.302;17.068;2023-02-15T05:52:34;27.10;;;10.40;;
77217;SDS011;66214;51.302;17.068;2023-02-15T05:55:03;29.90;;;11.90;;
77217;SDS011;66214;51.302;17.068;2023-02-15T05:57:32;46.20;;;15.00;;
77217;SDS011;66214;51.302;17.068;2023-02-15T06:00:00;35.30;;;13.90;;
77217;SDS011;66214;51.302;17.068;2023-02-15T06:02:35;64.70;;;21.60;;
77217;SDS011;66214;51.302;17.068;2023-02-15T06:05:04;49.10;;;17.90;;
77217;SDS011;66214;51.302;17.068;2023-02-15T06:07:33;53.70;;;21.60;;
77217;SDS011;66214;51.302;17.068;2023-02-15T06:10:03;35.40;;;14.00;;
77217;SDS011;66214;51.302;17.068;2023-02-15T06:12:32;23.60;;;9.60;;
77217;SDS011;66214;51.302;17.068;2023-02-15T06:14:59;26.40;;;11.00;;
77217;SDS011;66214;51.302;17.068;2023-02-15T06:17:27;24.80;;;9.50;;
77217;SDS011;66214;51.302;17.068;2023-02-15T06:19:55;21.80;;;8.80;;
77217;SDS011;66214;51.302;17.068;2023-02-15T06:22:23;30.80;;;11.80;;
77217;SDS011;66214;51.302;17.068;2023-02-15T06:24:51;31.60;;;12.00;;
77217;SDS011;66214;51.302;17.068;2023-02-15T06:27:18;22.40;;;9.40;;
77217;SDS011;66214;51.302;17.068;2023-02-15T06:29:46;26.10;;;11.00;;
77217;SDS011;66214;51.302;17.068;2023-02-15T06:32:14;30.00;;;12.20;;
77217;SDS011;66214;51.302;17.068;2023-02-15T06:34:43;40.30;;;14.10;;
77217;SDS011;66214;51.302;17.068;2023-02-15T06:37:10;49.50;;;16.10;;
77217;SDS011;66214;51.302;17.068;2023-02-15T06:39:44;42.80;;;14.70;;
77217;SDS011;66214;51.302;17.068;2023-02-15T06:42:12;43.70;;;15.20;;
77217;SDS011;66214;51.302;17.068;2023-02-15T06:44:40;32.90;;;11.70;;
77217;SDS011;66214;51.302;17.068;2023-02-15T06:47:08;37.40;;;13.60;;
77217;SDS011;66214;51.302;17.068;2023-02-15T06:49:36;38.50;;;16.00;;
77217;SDS011;66214;51.302;17.068;2023-02-15T06:52:04;37.90;;;14.40;;
77217;SDS011;66214;51.302;17.068;2023-02-15T06:54:32;22.30;;;9.20;;
77217;SDS011;66214;51.302;17.068;2023-02-15T06:57:00;26.10;;;10.20;;
77217;SDS011;66214;51.302;17.068;2023-02-15T06:59:28;35.80;;;13.80;;
77217;SDS011;66214;51.302;17.068;2023-02-15T07:01:56;28.70;;;11.80;;
77217;SDS011;66214;51.302;17.068;2023-02-15T07:04:24;31.80;;;13.20;;
77217;SDS011;66214;51.302;17.068;2023-02-15T07:06:52;34.40;;;13.80;;
77217;SDS011;66214;51.302;17.068;2023-02-15T07:09:21;31.70;;;13.60;;
77217;SDS011;66214;51.302;17.068;2023-02-15T07:11:50;36.60;;;14.40;;
77217;SDS011;66214;51.302;17.068;2023-02-15T07:14:36;64.70;;;24.00;;
77217;SDS011;66214;51.302;17.068;2023-02-15T07:17:06;31.00;;;12.40;;
77217;SDS011;66214;51.302;17.068;2023-02-15T07:23:05;37.70;;;14.70;;
77217;SDS011;66214;51.302;17.068;2023-02-15T07:25:33;17.40;;;7.40;;
77217;SDS011;66214;51.302;17.068;2023-02-15T07:28:03;41.90;;;14.40;;
77217;SDS011;66214;51.302;17.068;2023-02-15T07:30:31;37.50;;;14.90;;
77217;SDS011;66214;51.302;17.068;2023-02-15T07:32:59;27.50;;;13.00;;
77217;SDS011;66214;51.302;17.068;2023-02-15T07:35:49;22.10;;;9.30;;
77217;SDS011;66214;51.302;17.068;2023-02-15T07:38:20;30.20;;;12.40;;
77217;SDS011;66214;51.302;17.068;2023-02-15T07:40:56;27.50;;;10.50;;
77217;SDS011;66214;51.302;17.068;2023-02-15T07:47:03;47.90;;;18.10;;
77217;SDS011;66214;51.302;17.068;2023-02-15T07:49:31;53.70;;;19.60;;
77217;SDS011;66214;51.302;17.068;2023-02-15T07:52:00;50.30;;;20.40;;
77217;SDS011;66214;51.302;17.068;2023-02-15T07:54:29;50.30;;;20.00;;
77217;SDS011;66214;51.302;17.068;2023-02-15T07:56:57;53.10;;;20.70;;
77217;SDS011;66214;51.302;17.068;2023-02-15T07:59:25;47.90;;;20.70;;
77217;SDS011;66214;51.302;17.068;2023-02-15T08:01:53;35.50;;;15.70;;
77217;SDS011;66214;51.302;17.068;2023-02-15T08:04:23;34.10;;;14.70;;
77217;SDS011;66214;51.302;17.068;2023-02-15T08:06:53;36.30;;;13.70;;
77217;SDS011;66214;51.302;17.068;2023-02-15T08:09:21;38.10;;;15.70;;
77217;SDS011;66214;51.302;17.068;2023-02-15T08:11:49;32.70;;;14.80;;
77217;SDS011;66214;51.302;17.068;2023-02-15T08:14:19;33.80;;;14.60;;
77217;SDS011;66214;51.302;17.068;2023-02-15T08:16:49;29.00;;;13.40;;
77217;SDS011;66214;51.302;17.068;2023-02-15T08:19:24;34.60;;;12.80;;
77217;SDS011;66214;51.302;17.068;2023-02-15T08:21:58;23.60;;;11.40;;
77217;SDS011;66214;51.302;17.068;2023-02-15T08:24:32;30.30;;;13.00;;
77217;SDS011;66214;51.302;17.068;2023-02-15T08:27:03;43.50;;;15.50;;
77217;SDS011;66214;51.302;17.068;2023-02-15T08:29:33;42.20;;;16.80;;
77217;SDS011;66214;51.302;17.068;2023-02-15T08:32:06;45.90;;;18.10;;
77217;SDS011;66214;51.302;17.068;2023-02-15T08:34:39;45.70;;;14.60;;
77217;SDS011;66214;51.302;17.068;2023-02-15T08:37:08;45.90;;;17.90;;
77217;SDS011;66214;51.302;17.068;2023-02-15T08:39:36;39.00;;;17.20;;
77217;SDS011;66214;51.302;17.068;2023-02-15T08:42:04;36.10;;;16.60;;
77217;SDS011;66214;51.302;17.068;2023-02-15T08:44:35;32.90;;;14.40;;
77217;SDS011;66214;51.302;17.068;2023-02-15T08:47:02;32.20;;;12.90;;
77217;SDS011;66214;51.302;17.068;2023-02-15T08:49:31;27.00;;;11.50;;
77217;SDS011;66214;51.302;17.068;2023-02-15T08:52:02;31.10;;;12.60;;
77217;SDS011;66214;51.302;17.068;2023-02-15T08:54:31;18.90;;;9.20;;
77217;SDS011;66214;51.302;17.068;2023-02-15T08:56:58;36.90;;;14.90;;
77217;SDS011;66214;51.302;17.068;2023-02-15T08:59:27;34.60;;;15.00;;
77217;SDS011;66214;51.302;17.068;2023-02-15T09:01:55;31.30;;;13.00;;
77217;SDS011;66214;51.302;17.068;2023-02-15T09:04:23;30.70;;;12.00;;
77217;SDS011;66214;51.302;17.068;2023-02-15T09:06:51;33.80;;;12.60;;
77217;SDS011;66214;51.302;17.068;2023-02-15T09:09:19;44.50;;;20.00;;
77217;SDS011;66214;51.302;17.068;2023-02-15T09:11:49;42.70;;;18.00;;
77217;SDS011;66214;51.302;17.068;2023-02-15T09:14:19;31.90;;;13.10;;
77217;SDS011;66214;51.302;17.068;2023-02-15T09:16:49;36.90;;;16.70;;
77217;SDS011;66214;51.302;17.068;2023-02-15T09:19:21;31.30;;;14.60;;
77217;SDS011;66214;51.302;17.068;2023-02-15T09:21:50;25.70;;;11.60;;
77217;SDS011;66214;51.302;17.068;2023-02-15T09:24:19;29.00;;;12.70;;
77217;SDS011;66214;51.302;17.068;2023-02-15T09:26:48;34.90;;;13.70;;
77217;SDS011;66214;51.302;17.068;2023-02-15T09:29:17;27.20;;;11.30;;
77217;SDS011;66214;51.302;17.068;2023-02-15T09:31:48;32.30;;;14.70;;
77217;SDS011;66214;51.302;17.068;2023-02-15T09:34:20;28.80;;;12.00;;
77217;SDS011;66214;51.302;17.068;2023-02-15T09:36:50;33.00;;;14.00;;
77217;SDS011;66214;51.302;17.068;2023-02-15T09:39:24;28.00;;;13.60;;
77217;SDS011;66214;51.302;17.068;2023-02-15T09:56:47;33.20;;;14.50;;
77217;SDS011;66214;51.302;17.068;2023-02-15T10:02:20;32.20;;;15.10;;
77217;SDS011;66214;51.302;17.068;2023-02-15T10:28:57;40.70;;;16.80;;
77217;SDS011;66214;51.302;17.068;2023-02-15T10:31:34;34.00;;;15.80;;
77217;SDS011;66214;51.302;17.068;2023-02-15T10:34:37;33.70;;;17.00;;
77217;SDS011;66214;51.302;17.068;2023-02-15T10:40:37;36.20;;;16.40;;
77217;SDS011;66214;51.302;17.068;2023-02-15T10:43:27;32.50;;;17.20;;
77217;SDS011;66214;51.302;17.068;2023-02-15T10:49:36;33.20;;;18.10;;
77217;SDS011;66214;51.302;17.068;2023-02-15T10:56:37;28.60;;;16.50;;
77217;SDS011;66214;51.302;17.068;2023-02-15T11:02:07;31.20;;;18.80;;
77217;SDS011;66214;51.302;17.068;2023-02-15T11:07:28;30.90;;;18.70;;
77217;SDS011;66214;51.302;17.068;2023-02-15T11:12:54;32.30;;;21.50;;
77217;SDS011;66214;51.302;17.068;2023-02-15T11:15:33;30.20;;;19.30;;
77217;SDS011;66214;51.302;17.068;2023-02-15T11:21:44;28.60;;;18.50;;
77217;SDS011;66214;51.302;17.068;2023-02-15T11:24:18;31.50;;;20.20;;
77217;SDS011;66214;51.302;17.068;2023-02-15T11:26:54;27.50;;;18.40;;
77217;SDS011;66214;51.302;17.068;2023-02-15T11:35:03;28.40;;;19.20;;
77217;SDS011;66214;51.302;17.068;2023-02-15T11:40:47;31.20;;;20.90;;
77217;SDS011;66214;51.302;17.068;2023-02-15T11:43:39;27.80;;;19.60;;
77217;SDS011;66214;51.302;17.068;2023-02-15T11:46:12;29.80;;;20.10;;
77217;SDS011;66214;51.302;17.068;2023-02-15T11:48:42;32.70;;;21.50;;
77217;SDS011;66214;51.302;17.068;2023-02-15T11:51:21;30.30;;;20.30;;
77217;SDS011;66214;51.302;17.068;2023-02-15T11:53:50;26.20;;;19.10;;
77217;SDS011;66214;51.302;17.068;2023-02-15T11:56:24;27.60;;;19.10;;
77217;SDS011;66214;51.302;17.068;2023-02-15T17:38:20;34.70;;;13.00;;
77217;SDS011;66214;51.302;17.068;2023-02-15T17:40:48;30.70;;;12.80;;
77217;SDS011;66214;51.302;17.068;2023-02-15T17:43:16;39.50;;;15.50;;
77217;SDS011;66214;51.302;17.068;2023-02-15T17:45:47;38.20;;;14.50;;
77217;SDS011;66214;51.302;17.068;2023-02-15T17:48:32;48.10;;;16.80;;
77217;SDS011;66214;51.302;17.068;2023-02-15T17:51:03;49.10;;;17.90;;
77217;SDS011;66214;51.302;17.068;2023-02-15T17:53:33;48.30;;;19.30;;
77217;SDS011;66214;51.302;17.068;2023-02-15T17:56:01;42.50;;;14.60;;
77217;SDS011;66214;51.302;17.068;2023-02-15T17:58:37;33.90;;;14.20;;
77217;SDS011;66214;51.302;17.068;2023-02-15T18:01:16;38.90;;;16.10;;
77217;SDS011;66214;51.302;17.068;2023-02-15T18:04:07;35.70;;;12.50;;
77217;SDS011;66214;51.302;17.068;2023-02-15T18:06:55;41.20;;;15.10;;
77217;SDS011;66214;51.302;17.068;2023-02-15T18:09:42;37.90;;;14.50;;
77217;SDS011;66214;51.302;17.068;2023-02-15T18:12:30;31.10;;;11.70;;
77217;SDS011;66214;51.302;17.068;2023-02-15T18:15:00;40.00;;;15.00;;
77217;SDS011;66214;51.302;17.068;2023-02-15T18:20:22;40.60;;;15.60;;
77217;SDS011;66214;51.302;17.068;2023-02-15T18:22:53;44.10;;;16.00;;
77217;SDS011;66214;51.302;17.068;2023-02-15T18:25:22;46.00;;;17.40;;
77217;SDS011;66214;51.302;17.068;2023-02-15T18:27:53;47.10;;;19.20;;
77217;SDS011;66214;51.302;17.068;2023-02-15T18:30:23;45.60;;;15.60;;
77217;SDS011;66214;51.302;17.068;2023-02-15T18:32:55;39.70;;;15.10;;
77217;SDS011;66214;51.302;17.068;2023-02-15T18:35:26;52.70;;;20.80;;
77217;SDS011;66214;51.302;17.068;2023-02-15T18:37:57;44.10;;;18.20;;
77217;SDS011;66214;51.302;17.068;2023-02-15T18:40:26;41.70;;;16.10;;
77217;SDS011;66214;51.302;17.068;2023-02-15T18:42:55;37.50;;;15.30;;
77217;SDS011;66214;51.302;17.068;2023-02-15T18:45:26;34.70;;;12.70;;
77217;SDS011;66214;51.302;17.068;2023-02-15T18:47:58;45.20;;;18.10;;
77217;SDS011;66214;51.302;17.068;2023-02-15T18:50:34;43.60;;;16.60;;
77217;SDS011;66214;51.302;17.068;2023-02-15T18:53:05;44.90;;;14.90;;
77217;SDS011;66214;51.302;17.068;2023-02-15T18:55:34;44.10;;;17.30;;
77217;SDS011;66214;51.302;17.068;2023-02-15T18:58:03;33.20;;;13.50;;
77217;SDS011;66214;51.302;17.068;2023-02-15T19:00:32;42.50;;;16.80;;
77217;SDS011;66214;51.302;17.068;2023-02-15T19:03:01;48.80;;;18.80;;
77217;SDS011;66214;51.302;17.068;2023-02-15T19:05:31;51.90;;;21.10;;
77217;SDS011;66214;51.302;17.068;2023-02-15T19:08:00;56.00;;;22.00;;
77217;SDS011;66214;51.302;17.068;2023-02-15T19:10:31;53.50;;;20.60;;
77217;SDS011;66214;51.302;17.068;2023-02-15T19:12:59;60.40;;;21.80;;
77217;SDS011;66214;51.302;17.068;2023-02-15T19:15:29;50.90;;;21.60;;
77217;SDS011;66214;51.302;17.068;2023-02-15T19:17:57;45.60;;;18.10;;
77217;SDS011;66214;51.302;17.068;2023-02-15T19:20:41;51.30;;;21.60;;
77217;SDS011;66214;51.302;17.068;2023-02-15T19:23:18;44.00;;;17.40;;
77217;SDS011;66214;51.302;17.068;2023-02-15T19:25:48;26.90;;;11.40;;
77217;SDS011;66214;51.302;17.068;2023-02-15T19:28:20;50.10;;;17.60;;
77217;SDS011;66214;51.302;17.068;2023-02-15T19:30:53;53.70;;;22.20;;
77217;SDS011;66214;51.302;17.068;2023-02-15T19:33:21;26.50;;;10.10;;
77217;SDS011;66214;51.302;17.068;2023-02-15T19:35:52;56.60;;;22.50;;
77217;SDS011;66214;51.302;17.068;2023-02-15T19:38:25;50.30;;;17.60;;
77217;SDS011;66214;51.302;17.068;2023-02-15T19:41:01;55.80;;;22.20;;
77217;SDS011;66214;51.302;17.068;2023-02-15T19:43:34;73.80;;;28.60;;
77217;SDS011;66214;51.302;17.068;2023-02-15T19:46:02;55.20;;;23.50;;
77217;SDS011;66214;51.302;17.068;2023-02-15T19:48:30;67.10;;;26.60;;
77217;SDS011;66214;51.302;17.068;2023-02-15T19:50:58;49.20;;;19.10;;
77217;SDS011;66214;51.302;17.068;2023-02-15T19:53:28;43.70;;;19.30;;
77217;SDS011;66214;51.302;17.068;2023-02-15T19:55:56;54.30;;;21.30;;
77217;SDS011;66214;51.302;17.068;2023-02-15T19:58:24;48.80;;;20.60;;
77217;SDS011;66214;51.302;17.068;2023-02-15T20:00:52;59.60;;;21.30;;
77217;SDS011;66214;51.302;17.068;2023-02-15T20:03:20;45.00;;;19.50;;
77217;SDS011;66214;51.302;17.068;2023-02-15T20:05:48;47.20;;;18.60;;
77217;SDS011;66214;51.302;17.068;2023-02-15T20:08:18;50.20;;;20.80;;
77217;SDS011;66214;51.302;17.068;2023-02-15T20:10:48;57.20;;;22.30;;
77217;SDS011;66214;51.302;17.068;2023-02-15T20:13:18;57.00;;;22.70;;
77217;SDS011;66214;51.302;17.068;2023-02-15T20:15:47;54.30;;;22.80;;
